Página principal
METAR-TAF:

METAR-TAF

Aeroportos :

Tashkent, Uzbequistão

Aeroporto Internacional de Tashkent

latitude: 41-16N, longitude: 069-16E, altura: 489 m

Observação actual do tempo

O boletim foi feito há 46 minutos, às 01:30 UTC
Vento 8 kt de es-nordeste
Temperatura 9°C
Humidade 87%
Pressão 1020 hPa
Visibilidade 10 km ou mais
sem nuvens abaixo de 1500 metros e sem cumulonimbus

METAR: UTTT 280130Z 06008KT CAVOK 09/07 Q1020 R08L/29//50 NOSIG

Hora: 07:16 (02:16 UTC)

Previsão

O boletim foi feito há 3 horas e 16 minutos, às 23:00 UTC
Previsão válida de 28 às 00 UTC a 28 às 24 UTC
Vento 10 kt de este
Visibilidade: 7000 m
Temporariamente
de 28 às 00 UTC a 28 às 03 UTC
Visibilidade: 1000 m
Nuvens dispersasa uma altura de 300 ft
neblina
Temporariamente
de 28 às 12 UTC a 28 às 24 UTC
Visibilidade: 2000 m
neblina, fumo

TAF: UTTT 272300Z 2800/2824 08010KT 7000 NSC TEMPO 2800/2803 1000 BR SCT003 TEMPO 2812/2824 2000 BR FU

Observações e previsões do tempo de mais de 4000 aeroportos (mensagens METAR e TAF).

As estações disponíveis são os pontos amarelos e vermelhos sobre o mapa.

Mova o rato sobre o mapa para ver o nome da estação.

Depois clique no ponto para visualizar as observações e previsões meteorológicas.

Para alterar o mapa : clique nos botões verdes com uma cruz preta para aumentar o zoom; no botão verde com uma pitada de zoom; ou nas setas verdes para mapas adjacentes.


METAR-TAF: